This is the latest recevied weather packets stored in our database for station/object W0DXV. If no packets are shown the sender has not sent any weather packets the latest 10 day(s).
| Time | Temp. | Humidity | Pressure | Rain* | Wind** | Luminosity | Snow |
|---|---|---|---|---|---|---|---|
| 1777231883 | 20° C | 69% | 1011.4 hPa | 0 mm | - | 676 W/m² | - |
| 1777231581 | 19.44° C | 71% | 1011.5 hPa | 0 mm | - | 713 W/m² | - |
| 1777231276 | 19.44° C | 72% | 1011.6 hPa | 0 mm | - | 224 W/m² | - |
| 1777230972 | 20° C | 71% | 1011.3 hPa | 0 mm | - | 577 W/m² | - |
| 1777230669 | 20° C | 71% | 1011.4 hPa | 0 mm | - | 797 W/m² | - |
| 1777230364 | 19.44° C | 71% | 1011.5 hPa | 0 mm | - | 720 W/m² | - |
| 1777230061 | 19.44° C | 72% | 1011.8 hPa | 0 mm | - | 290 W/m² | - |
| 1777229757 | 20° C | 71% | 1011.6 hPa | 0 mm | - | 272 W/m² | - |
| 1777229454 | 20° C | 70% | 1011.5 hPa | 0 mm | - | 283 W/m² | - |
| 1777229151 | 19.44° C | 71% | 1011.6 hPa | 0 mm | - | 768 W/m² | - |
| 1777228849 | 20° C | 70% | 1011.5 hPa | 0 mm | - | 712 W/m² | - |
| 1777228543 | 19.44° C | 70% | 1011.6 hPa | 0 mm | - | 727 W/m² | - |
| 1777228240 | 20° C | 71% | 1011.6 hPa | 0 mm | - | 829 W/m² | - |
| 1777227939 | 19.44° C | 72% | 1011.6 hPa | 0 mm | - | 773 W/m² | - |
| 1777227635 | 18.89° C | 75% | 1011.8 hPa | 0 mm | - | 724 W/m² | - |
| 1777227331 | 18.89° C | 76% | 1011.8 hPa | 0 mm | - | 232 W/m² | - |
| 1777227028 | 19.44° C | 74% | 1011.7 hPa | 0 mm | - | 202 W/m² | - |
| 1777226728 | 19.44° C | 75% | 1011.4 hPa | 0 mm | - | 221 W/m² | - |
| 1777226423 | 19.44° C | 74% | 1011.6 hPa | 0 mm | - | 505 W/m² | - |
| 1777226119 | 18.89° C | 76% | 1011.8 hPa | 0 mm | - | 348 W/m² | - |
| 1777225815 | 19.44° C | 76% | 1011.9 hPa | 0 mm | - | 795 W/m² | - |
| 1777225511 | 18.89° C | 76% | 1011.8 hPa | 0 mm | - | 526 W/m² | - |
| 1777225209 | 18.89° C | 77% | 1011.7 hPa | 0 mm | - | 414 W/m² | - |
| 1777224905 | 18.33° C | 78% | 1011.7 hPa | 0 mm | - | 1027 W/m² | - |
| 1777224602 | 18.33° C | 80% | 1011.8 hPa | 0 mm | - | 241 W/m² | - |
* Rain latest hour (hover to see other rain measurements)
** Current wind speed in m/s (hover to see current wind gust speed)